sensor_id;sensor_type;location;lat;lon;timestamp;temperature;humidity
59301;DHT22;45073;52.740;6.784;2023-06-04T00:02:17;13.90;71.80
59301;DHT22;45073;52.740;6.784;2023-06-04T00:04:43;13.80;72.10
59301;DHT22;45073;52.740;6.784;2023-06-04T00:07:08;13.70;72.20
59301;DHT22;45073;52.740;6.784;2023-06-04T00:09:34;13.80;73.40
59301;DHT22;45073;52.740;6.784;2023-06-04T00:12:00;13.90;74.00
59301;DHT22;45073;52.740;6.784;2023-06-04T00:14:25;13.80;73.30
59301;DHT22;45073;52.740;6.784;2023-06-04T00:16:51;13.80;74.30
59301;DHT22;45073;52.740;6.784;2023-06-04T00:19:16;13.80;74.40
59301;DHT22;45073;52.740;6.784;2023-06-04T00:21:42;13.70;73.90
59301;DHT22;45073;52.740;6.784;2023-06-04T00:24:07;13.70;74.20
59301;DHT22;45073;52.740;6.784;2023-06-04T00:26:33;13.60;74.30
59301;DHT22;45073;52.740;6.784;2023-06-04T00:29:00;13.60;75.60
59301;DHT22;45073;52.740;6.784;2023-06-04T00:31:26;13.50;75.10
59301;DHT22;45073;52.740;6.784;2023-06-04T00:33:51;13.50;75.40
59301;DHT22;45073;52.740;6.784;2023-06-04T00:36:17;13.50;76.80
59301;DHT22;45073;52.740;6.784;2023-06-04T00:38:43;13.50;77.40
59301;DHT22;45073;52.740;6.784;2023-06-04T00:41:08;13.40;76.90
59301;DHT22;45073;52.740;6.784;2023-06-04T00:43:34;13.40;77.40
59301;DHT22;45073;52.740;6.784;2023-06-04T00:46:01;13.40;79.50
59301;DHT22;45073;52.740;6.784;2023-06-04T00:48:28;13.40;79.40
59301;DHT22;45073;52.740;6.784;2023-06-04T00:50:55;13.30;78.90
59301;DHT22;45073;52.740;6.784;2023-06-04T00:53:23;13.20;79.30
59301;DHT22;45073;52.740;6.784;2023-06-04T00:55:50;13.20;80.10
59301;DHT22;45073;52.740;6.784;2023-06-04T00:58:16;13.10;83.00
59301;DHT22;45073;52.740;6.784;2023-06-04T01:00:45;13.10;82.70
59301;DHT22;45073;52.740;6.784;2023-06-04T01:03:14;13.10;83.00
59301;DHT22;45073;52.740;6.784;2023-06-04T01:05:54;13.00;84.20
59301;DHT22;45073;52.740;6.784;2023-06-04T01:08:26;13.10;89.40
59301;DHT22;45073;52.740;6.784;2023-06-04T01:10:52;13.00;88.40
59301;DHT22;45073;52.740;6.784;2023-06-04T01:13:18;13.00;88.90
59301;DHT22;45073;52.740;6.784;2023-06-04T01:15:44;12.90;90.40
59301;DHT22;45073;52.740;6.784;2023-06-04T01:18:10;12.90;91.00
59301;DHT22;45073;52.740;6.784;2023-06-04T01:20:43;12.90;91.40
59301;DHT22;45073;52.740;6.784;2023-06-04T01:26:01;12.80;92.60
59301;DHT22;45073;52.740;6.784;2023-06-04T01:28:32;12.80;96.40
59301;DHT22;45073;52.740;6.784;2023-06-04T01:30:59;12.80;94.80
59301;DHT22;45073;52.740;6.784;2023-06-04T01:33:27;12.70;95.40
59301;DHT22;45073;52.740;6.784;2023-06-04T01:35:52;12.60;95.40
59301;DHT22;45073;52.740;6.784;2023-06-04T01:38:18;12.70;98.70
59301;DHT22;45073;52.740;6.784;2023-06-04T01:40:44;12.60;97.10
59301;DHT22;45073;52.740;6.784;2023-06-04T01:43:10;12.50;97.30
59301;DHT22;45073;52.740;6.784;2023-06-04T01:45:36;12.50;97.80
59301;DHT22;45073;52.740;6.784;2023-06-04T01:48:03;12.50;99.90
59301;DHT22;45073;52.740;6.784;2023-06-04T01:50:29;12.50;99.50
59301;DHT22;45073;52.740;6.784;2023-06-04T01:52:56;12.50;99.90
59301;DHT22;45073;52.740;6.784;2023-06-04T01:55:21;12.50;99.90
59301;DHT22;45073;52.740;6.784;2023-06-04T01:57:47;12.40;99.90
59301;DHT22;45073;52.740;6.784;2023-06-04T02:00:14;12.30;99.90
59301;DHT22;45073;52.740;6.784;2023-06-04T02:02:42;12.30;99.90
59301;DHT22;45073;52.740;6.784;2023-06-04T02:05:09;12.20;99.90
59301;DHT22;45073;52.740;6.784;2023-06-04T02:07:36;12.20;99.90
59301;DHT22;45073;52.740;6.784;2023-06-04T02:10:16;12.10;99.90
59301;DHT22;45073;52.740;6.784;2023-06-04T02:12:57;12.10;99.90
59301;DHT22;45073;52.740;6.784;2023-06-04T02:15:24;12.10;99.90
59301;DHT22;45073;52.740;6.784;2023-06-04T02:17:50;12.00;99.90
59301;DHT22;45073;52.740;6.784;2023-06-04T02:20:17;12.00;99.90
59301;DHT22;45073;52.740;6.784;2023-06-04T02:22:43;11.90;99.90
59301;DHT22;45073;52.740;6.784;2023-06-04T02:25:08;11.90;99.90
59301;DHT22;45073;52.740;6.784;2023-06-04T02:27:35;11.90;99.90
59301;DHT22;45073;52.740;6.784;2023-06-04T02:30:01;12.00;99.90
59301;DHT22;45073;52.740;6.784;2023-06-04T02:32:27;11.90;99.90
59301;DHT22;45073;52.740;6.784;2023-06-04T02:34:54;11.90;99.90
59301;DHT22;45073;52.740;6.784;2023-06-04T02:37:21;11.80;99.90
59301;DHT22;45073;52.740;6.784;2023-06-04T02:39:46;11.80;99.90
59301;DHT22;45073;52.740;6.784;2023-06-04T02:42:12;11.80;99.90
59301;DHT22;45073;52.740;6.784;2023-06-04T02:44:38;11.80;99.90
59301;DHT22;45073;52.740;6.784;2023-06-04T02:47:03;11.70;99.90
59301;DHT22;45073;52.740;6.784;2023-06-04T02:49:29;11.70;99.90
59301;DHT22;45073;52.740;6.784;2023-06-04T02:51:55;11.70;99.90
59301;DHT22;45073;52.740;6.784;2023-06-04T02:54:21;11.60;99.90
59301;DHT22;45073;52.740;6.784;2023-06-04T02:56:46;11.60;99.90
59301;DHT22;45073;52.740;6.784;2023-06-04T02:59:14;11.60;99.90
59301;DHT22;45073;52.740;6.784;2023-06-04T03:01:40;11.60;99.90
59301;DHT22;45073;52.740;6.784;2023-06-04T03:04:06;11.60;99.90
59301;DHT22;45073;52.740;6.784;2023-06-04T03:06:36;11.50;99.90
59301;DHT22;45073;52.740;6.784;2023-06-04T03:09:05;11.50;99.90
59301;DHT22;45073;52.740;6.784;2023-06-04T03:11:30;11.50;99.90
59301;DHT22;45073;52.740;6.784;2023-06-04T03:13:56;11.40;99.90
59301;DHT22;45073;52.740;6.784;2023-06-04T03:16:22;11.30;99.90
59301;DHT22;45073;52.740;6.784;2023-06-04T03:18:48;11.30;99.90
59301;DHT22;45073;52.740;6.784;2023-06-04T03:21:13;11.30;99.90
59301;DHT22;45073;52.740;6.784;2023-06-04T03:23:39;11.30;99.90
59301;DHT22;45073;52.740;6.784;2023-06-04T03:26:06;11.20;99.90
59301;DHT22;45073;52.740;6.784;2023-06-04T03:28:32;11.20;99.90
59301;DHT22;45073;52.740;6.784;2023-06-04T03:30:58;11.20;99.90
59301;DHT22;45073;52.740;6.784;2023-06-04T03:33:24;11.20;99.90
59301;DHT22;45073;52.740;6.784;2023-06-04T03:35:51;11.20;99.90
59301;DHT22;45073;52.740;6.784;2023-06-04T03:38:18;11.20;99.90
59301;DHT22;45073;52.740;6.784;2023-06-04T03:40:43;11.20;99.90
59301;DHT22;45073;52.740;6.784;2023-06-04T03:43:09;11.20;99.90
59301;DHT22;45073;52.740;6.784;2023-06-04T03:45:35;11.20;99.90
59301;DHT22;45073;52.740;6.784;2023-06-04T03:48:01;11.20;99.90
59301;DHT22;45073;52.740;6.784;2023-06-04T03:50:26;11.20;99.90
59301;DHT22;45073;52.740;6.784;2023-06-04T03:52:53;11.20;99.90
59301;DHT22;45073;52.740;6.784;2023-06-04T03:55:18;11.10;99.90
59301;DHT22;45073;52.740;6.784;2023-06-04T03:57:44;11.10;99.90
59301;DHT22;45073;52.740;6.784;2023-06-04T04:00:11;11.00;99.90
59301;DHT22;45073;52.740;6.784;2023-06-04T04:02:41;10.90;99.90
59301;DHT22;45073;52.740;6.784;2023-06-04T04:05:08;10.90;99.90
59301;DHT22;45073;52.740;6.784;2023-06-04T04:07:34;10.90;99.90
59301;DHT22;45073;52.740;6.784;2023-06-04T04:10:00;10.90;99.90
59301;DHT22;45073;52.740;6.784;2023-06-04T04:12:26;10.90;99.90
59301;DHT22;45073;52.740;6.784;2023-06-04T04:14:51;10.90;99.90
59301;DHT22;45073;52.740;6.784;2023-06-04T04:17:17;10.90;99.90
59301;DHT22;45073;52.740;6.784;2023-06-04T04:19:43;11.00;99.90
59301;DHT22;45073;52.740;6.784;2023-06-04T04:22:10;11.10;99.90
59301;DHT22;45073;52.740;6.784;2023-06-04T04:24:36;11.30;99.90
59301;DHT22;45073;52.740;6.784;2023-06-04T04:27:03;11.30;99.90
59301;DHT22;45073;52.740;6.784;2023-06-04T04:29:30;11.30;99.90
59301;DHT22;45073;52.740;6.784;2023-06-04T04:31:58;11.30;99.90
59301;DHT22;45073;52.740;6.784;2023-06-04T04:34:26;11.40;99.90
59301;DHT22;45073;52.740;6.784;2023-06-04T04:36:52;11.40;99.90
59301;DHT22;45073;52.740;6.784;2023-06-04T04:39:24;11.40;99.90
59301;DHT22;45073;52.740;6.784;2023-06-04T04:41:51;11.50;99.90
59301;DHT22;45073;52.740;6.784;2023-06-04T04:44:16;11.60;99.90
59301;DHT22;45073;52.740;6.784;2023-06-04T04:46:42;11.60;99.90
59301;DHT22;45073;52.740;6.784;2023-06-04T04:49:08;11.70;99.90
59301;DHT22;45073;52.740;6.784;2023-06-04T04:51:34;11.70;99.90
59301;DHT22;45073;52.740;6.784;2023-06-04T04:54:00;11.80;99.90
59301;DHT22;45073;52.740;6.784;2023-06-04T04:56:26;11.80;99.90
59301;DHT22;45073;52.740;6.784;2023-06-04T04:58:53;11.90;99.90
59301;DHT22;45073;52.740;6.784;2023-06-04T05:01:19;12.00;99.90
59301;DHT22;45073;52.740;6.784;2023-06-04T05:03:44;12.10;99.90
59301;DHT22;45073;52.740;6.784;2023-06-04T05:06:10;12.10;99.90
59301;DHT22;45073;52.740;6.784;2023-06-04T05:08:36;12.20;99.90
59301;DHT22;45073;52.740;6.784;2023-06-04T05:11:01;12.20;99.90
59301;DHT22;45073;52.740;6.784;2023-06-04T05:13:27;12.30;99.90
59301;DHT22;45073;52.740;6.784;2023-06-04T05:15:53;12.30;99.90
59301;DHT22;45073;52.740;6.784;2023-06-04T05:18:19;12.40;99.90
59301;DHT22;45073;52.740;6.784;2023-06-04T05:20:58;12.50;99.90
59301;DHT22;45073;52.740;6.784;2023-06-04T05:23:26;12.50;99.90
59301;DHT22;45073;52.740;6.784;2023-06-04T05:25:52;12.60;99.90
59301;DHT22;45073;52.740;6.784;2023-06-04T05:28:18;12.70;99.90
59301;DHT22;45073;52.740;6.784;2023-06-04T05:30:44;12.80;99.90
59301;DHT22;45073;52.740;6.784;2023-06-04T05:33:10;12.90;99.90
59301;DHT22;45073;52.740;6.784;2023-06-04T05:35:45;12.90;99.90
59301;DHT22;45073;52.740;6.784;2023-06-04T05:38:11;12.90;99.90
59301;DHT22;45073;52.740;6.784;2023-06-04T05:40:42;13.10;99.90
59301;DHT22;45073;52.740;6.784;2023-06-04T05:43:08;13.10;99.90
59301;DHT22;45073;52.740;6.784;2023-06-04T05:45:34;13.10;99.90
59301;DHT22;45073;52.740;6.784;2023-06-04T05:47:59;13.20;99.90
59301;DHT22;45073;52.740;6.784;2023-06-04T05:50:25;13.20;99.90
59301;DHT22;45073;52.740;6.784;2023-06-04T05:52:51;13.30;99.90
59301;DHT22;45073;52.740;6.784;2023-06-04T05:55:17;13.40;99.90
59301;DHT22;45073;52.740;6.784;2023-06-04T05:57:42;13.40;99.90
59301;DHT22;45073;52.740;6.784;2023-06-04T06:00:08;13.50;99.90
59301;DHT22;45073;52.740;6.784;2023-06-04T06:02:35;13.60;99.90
59301;DHT22;45073;52.740;6.784;2023-06-04T06:05:00;13.70;99.90
59301;DHT22;45073;52.740;6.784;2023-06-04T06:07:26;13.80;99.90
59301;DHT22;45073;52.740;6.784;2023-06-04T06:09:51;13.80;99.90
59301;DHT22;45073;52.740;6.784;2023-06-04T06:12:17;13.90;99.90
59301;DHT22;45073;52.740;6.784;2023-06-04T06:14:43;14.00;99.90
59301;DHT22;45073;52.740;6.784;2023-06-04T06:17:08;14.10;99.90
59301;DHT22;45073;52.740;6.784;2023-06-04T06:19:36;14.10;99.90
59301;DHT22;45073;52.740;6.784;2023-06-04T06:22:01;14.20;99.90
59301;DHT22;45073;52.740;6.784;2023-06-04T06:24:28;14.30;99.90
59301;DHT22;45073;52.740;6.784;2023-06-04T06:26:54;14.40;99.90
59301;DHT22;45073;52.740;6.784;2023-06-04T06:29:20;14.40;99.90
59301;DHT22;45073;52.740;6.784;2023-06-04T06:31:46;14.60;99.90
59301;DHT22;45073;52.740;6.784;2023-06-04T06:34:12;14.70;99.90
59301;DHT22;45073;52.740;6.784;2023-06-04T06:36:38;14.70;99.90
59301;DHT22;45073;52.740;6.784;2023-06-04T06:39:03;14.90;99.90
59301;DHT22;45073;52.740;6.784;2023-06-04T06:41:29;14.90;99.90
59301;DHT22;45073;52.740;6.784;2023-06-04T06:43:58;15.00;99.90
59301;DHT22;45073;52.740;6.784;2023-06-04T06:46:23;15.10;99.90
59301;DHT22;45073;52.740;6.784;2023-06-04T06:48:49;15.20;99.90
59301;DHT22;45073;52.740;6.784;2023-06-04T06:51:14;15.30;99.90
59301;DHT22;45073;52.740;6.784;2023-06-04T06:53:40;15.40;99.90
59301;DHT22;45073;52.740;6.784;2023-06-04T06:56:06;15.50;99.90
59301;DHT22;45073;52.740;6.784;2023-06-04T06:58:32;15.60;99.90
59301;DHT22;45073;52.740;6.784;2023-06-04T07:00:57;15.60;99.90
59301;DHT22;45073;52.740;6.784;2023-06-04T07:03:23;15.70;99.90
59301;DHT22;45073;52.740;6.784;2023-06-04T07:05:49;15.70;99.90
59301;DHT22;45073;52.740;6.784;2023-06-04T07:08:14;15.80;99.90
59301;DHT22;45073;52.740;6.784;2023-06-04T07:10:40;15.90;99.90
59301;DHT22;45073;52.740;6.784;2023-06-04T07:13:05;16.10;99.90
59301;DHT22;45073;52.740;6.784;2023-06-04T07:15:31;16.10;99.90
59301;DHT22;45073;52.740;6.784;2023-06-04T07:17:57;16.20;99.90
59301;DHT22;45073;52.740;6.784;2023-06-04T07:20:22;16.30;99.90
59301;DHT22;45073;52.740;6.784;2023-06-04T07:22:48;16.40;99.90
59301;DHT22;45073;52.740;6.784;2023-06-04T07:25:14;16.50;99.90
59301;DHT22;45073;52.740;6.784;2023-06-04T07:27:39;16.50;99.90
59301;DHT22;45073;52.740;6.784;2023-06-04T07:30:06;16.60;99.90
59301;DHT22;45073;52.740;6.784;2023-06-04T07:32:33;16.70;99.90
59301;DHT22;45073;52.740;6.784;2023-06-04T07:34:58;16.80;99.90
59301;DHT22;45073;52.740;6.784;2023-06-04T07:37:24;16.90;99.90
59301;DHT22;45073;52.740;6.784;2023-06-04T07:39:50;16.90;99.40
59301;DHT22;45073;52.740;6.784;2023-06-04T07:42:15;16.90;98.80
59301;DHT22;45073;52.740;6.784;2023-06-04T07:44:41;17.10;98.70
59301;DHT22;45073;52.740;6.784;2023-06-04T07:47:07;17.10;97.90
59301;DHT22;45073;52.740;6.784;2023-06-04T07:49:32;17.20;97.80
59301;DHT22;45073;52.740;6.784;2023-06-04T07:51:58;17.30;97.20
59301;DHT22;45073;52.740;6.784;2023-06-04T07:54:24;17.40;96.60
59301;DHT22;45073;52.740;6.784;2023-06-04T07:56:49;17.50;96.50
59301;DHT22;45073;52.740;6.784;2023-06-04T07:59:23;17.50;95.60
59301;DHT22;45073;52.740;6.784;2023-06-04T08:01:52;17.60;95.70
59301;DHT22;45073;52.740;6.784;2023-06-04T08:04:18;17.70;95.30
59301;DHT22;45073;52.740;6.784;2023-06-04T08:06:44;17.80;94.40
59301;DHT22;45073;52.740;6.784;2023-06-04T08:09:09;17.80;92.30
59301;DHT22;45073;52.740;6.784;2023-06-04T08:11:35;17.90;91.40
59301;DHT22;45073;52.740;6.784;2023-06-04T08:14:01;17.90;90.60
59301;DHT22;45073;52.740;6.784;2023-06-04T08:16:27;18.00;90.50
59301;DHT22;45073;52.740;6.784;2023-06-04T08:18:54;18.10;90.70
59301;DHT22;45073;52.740;6.784;2023-06-04T08:21:26;18.20;90.10
59301;DHT22;45073;52.740;6.784;2023-06-04T08:23:52;18.30;89.40
59301;DHT22;45073;52.740;6.784;2023-06-04T08:26:18;18.30;88.10
59301;DHT22;45073;52.740;6.784;2023-06-04T08:28:47;18.40;87.00
59301;DHT22;45073;52.740;6.784;2023-06-04T08:31:13;18.50;84.80
59301;DHT22;45073;52.740;6.784;2023-06-04T08:33:39;18.60;82.10
59301;DHT22;45073;52.740;6.784;2023-06-04T08:36:05;18.60;79.20
59301;DHT22;45073;52.740;6.784;2023-06-04T08:38:30;18.70;77.80
59301;DHT22;45073;52.740;6.784;2023-06-04T08:41:01;18.70;77.80
59301;DHT22;45073;52.740;6.784;2023-06-04T08:43:29;18.80;77.90
59301;DHT22;45073;52.740;6.784;2023-06-04T08:45:59;18.90;77.20
59301;DHT22;45073;52.740;6.784;2023-06-04T08:48:28;18.90;76.40
59301;DHT22;45073;52.740;6.784;2023-06-04T08:50:57;19.00;75.20
59301;DHT22;45073;52.740;6.784;2023-06-04T08:53:25;19.00;74.80
59301;DHT22;45073;52.740;6.784;2023-06-04T08:55:53;19.10;74.60
59301;DHT22;45073;52.740;6.784;2023-06-04T08:58:19;19.20;73.20
59301;DHT22;45073;52.740;6.784;2023-06-04T09:00:45;19.20;71.80
59301;DHT22;45073;52.740;6.784;2023-06-04T09:03:12;19.30;71.90
59301;DHT22;45073;52.740;6.784;2023-06-04T09:05:39;19.40;72.40
59301;DHT22;45073;52.740;6.784;2023-06-04T09:08:06;19.50;72.00
59301;DHT22;45073;52.740;6.784;2023-06-04T09:10:35;19.50;72.00
59301;DHT22;45073;52.740;6.784;2023-06-04T09:13:03;19.60;71.80
59301;DHT22;45073;52.740;6.784;2023-06-04T09:15:29;19.70;71.50
59301;DHT22;45073;52.740;6.784;2023-06-04T09:17:55;19.80;71.00
59301;DHT22;45073;52.740;6.784;2023-06-04T09:20:24;19.80;70.50
59301;DHT22;45073;52.740;6.784;2023-06-04T09:22:50;19.90;69.40
59301;DHT22;45073;52.740;6.784;2023-06-04T09:25:24;20.00;70.00
59301;DHT22;45073;52.740;6.784;2023-06-04T09:27:51;20.00;69.40
59301;DHT22;45073;52.740;6.784;2023-06-04T09:30:17;20.10;68.60
59301;DHT22;45073;52.740;6.784;2023-06-04T09:32:43;20.10;69.00
59301;DHT22;45073;52.740;6.784;2023-06-04T09:35:10;20.20;68.90
59301;DHT22;45073;52.740;6.784;2023-06-04T09:37:37;20.30;68.70
59301;DHT22;45073;52.740;6.784;2023-06-04T09:40:03;20.40;69.00
59301;DHT22;45073;52.740;6.784;2023-06-04T09:42:30;20.50;69.20
59301;DHT22;45073;52.740;6.784;2023-06-04T09:45:07;20.60;68.70
59301;DHT22;45073;52.740;6.784;2023-06-04T09:47:43;20.70;68.30
59301;DHT22;45073;52.740;6.784;2023-06-04T09:50:12;20.80;67.60
59301;DHT22;45073;52.740;6.784;2023-06-04T09:52:38;20.80;67.90
59301;DHT22;45073;52.740;6.784;2023-06-04T09:55:25;20.90;67.10
59301;DHT22;45073;52.740;6.784;2023-06-04T09:57:52;21.00;67.30
59301;DHT22;45073;52.740;6.784;2023-06-04T10:00:20;21.00;67.10
59301;DHT22;45073;52.740;6.784;2023-06-04T10:02:51;21.10;66.80
59301;DHT22;45073;52.740;6.784;2023-06-04T10:05:21;21.20;66.40
59301;DHT22;45073;52.740;6.784;2023-06-04T10:07:50;21.30;66.50
59301;DHT22;45073;52.740;6.784;2023-06-04T10:10:20;21.40;65.50
59301;DHT22;45073;52.740;6.784;2023-06-04T10:12:50;21.50;65.30
59301;DHT22;45073;52.740;6.784;2023-06-04T10:15:19;21.60;64.80
59301;DHT22;45073;52.740;6.784;2023-06-04T10:17:47;21.60;64.20
59301;DHT22;45073;52.740;6.784;2023-06-04T10:20:14;21.70;64.00
59301;DHT22;45073;52.740;6.784;2023-06-04T10:22:39;21.80;63.80
59301;DHT22;45073;52.740;6.784;2023-06-04T10:25:06;21.90;62.20
59301;DHT22;45073;52.740;6.784;2023-06-04T10:27:34;22.00;61.80
59301;DHT22;45073;52.740;6.784;2023-06-04T10:30:01;22.10;61.40
59301;DHT22;45073;52.740;6.784;2023-06-04T10:32:28;22.10;62.20
59301;DHT22;45073;52.740;6.784;2023-06-04T10:34:55;22.20;61.00
59301;DHT22;45073;52.740;6.784;2023-06-04T10:37:25;22.20;60.50
59301;DHT22;45073;52.740;6.784;2023-06-04T10:39:56;22.30;60.60
59301;DHT22;45073;52.740;6.784;2023-06-04T10:42:23;22.40;60.40
59301;DHT22;45073;52.740;6.784;2023-06-04T10:44:51;22.50;59.90
59301;DHT22;45073;52.740;6.784;2023-06-04T10:47:25;22.60;60.00
59301;DHT22;45073;52.740;6.784;2023-06-04T10:49:54;22.70;59.20
59301;DHT22;45073;52.740;6.784;2023-06-04T10:52:21;22.80;60.00
59301;DHT22;45073;52.740;6.784;2023-06-04T10:54:47;22.90;59.30
59301;DHT22;45073;52.740;6.784;2023-06-04T10:57:17;23.00;59.40
59301;DHT22;45073;52.740;6.784;2023-06-04T10:59:59;23.00;58.40
59301;DHT22;45073;52.740;6.784;2023-06-04T11:02:25;23.10;58.30
59301;DHT22;45073;52.740;6.784;2023-06-04T11:05:07;23.10;58.40
59301;DHT22;45073;52.740;6.784;2023-06-04T11:07:42;23.20;58.70
59301;DHT22;45073;52.740;6.784;2023-06-04T11:10:10;23.30;57.70
59301;DHT22;45073;52.740;6.784;2023-06-04T11:12:45;23.30;56.90
59301;DHT22;45073;52.740;6.784;2023-06-04T11:15:11;23.40;56.70
59301;DHT22;45073;52.740;6.784;2023-06-04T11:17:37;23.40;57.00
59301;DHT22;45073;52.740;6.784;2023-06-04T11:20:03;23.50;56.70
59301;DHT22;45073;52.740;6.784;2023-06-04T11:22:32;23.50;55.90
59301;DHT22;45073;52.740;6.784;2023-06-04T11:24:59;23.50;56.30
59301;DHT22;45073;52.740;6.784;2023-06-04T11:27:25;23.60;56.00
59301;DHT22;45073;52.740;6.784;2023-06-04T11:29:54;23.60;55.50
59301;DHT22;45073;52.740;6.784;2023-06-04T11:32:26;23.60;55.30
59301;DHT22;45073;52.740;6.784;2023-06-04T11:34:51;23.70;56.60
59301;DHT22;45073;52.740;6.784;2023-06-04T11:37:26;23.80;56.50
59301;DHT22;45073;52.740;6.784;2023-06-04T11:39:55;24.00;56.80
59301;DHT22;45073;52.740;6.784;2023-06-04T11:42:21;24.10;56.60
59301;DHT22;45073;52.740;6.784;2023-06-04T11:44:47;24.20;55.70
59301;DHT22;45073;52.740;6.784;2023-06-04T11:47:14;24.20;55.20
59301;DHT22;45073;52.740;6.784;2023-06-04T11:49:40;24.20;55.20
59301;DHT22;45073;52.740;6.784;2023-06-04T11:52:08;24.30;55.50
59301;DHT22;45073;52.740;6.784;2023-06-04T11:54:34;24.40;54.90
59301;DHT22;45073;52.740;6.784;2023-06-04T11:57:03;24.50;54.30
59301;DHT22;45073;52.740;6.784;2023-06-04T11:59:31;24.50;53.60
59301;DHT22;45073;52.740;6.784;2023-06-04T12:01:57;24.40;53.70
59301;DHT22;45073;52.740;6.784;2023-06-04T12:04:23;24.50;54.30
59301;DHT22;45073;52.740;6.784;2023-06-04T12:09:30;24.80;53.60
59301;DHT22;45073;52.740;6.784;2023-06-04T12:12:05;24.90;53.80
59301;DHT22;45073;52.740;6.784;2023-06-04T12:14:31;25.00;53.90
59301;DHT22;45073;52.740;6.784;2023-06-04T12:17:07;25.20;54.20
59301;DHT22;45073;52.740;6.784;2023-06-04T12:19:44;25.30;54.00
59301;DHT22;45073;52.740;6.784;2023-06-04T12:22:10;25.40;53.80
59301;DHT22;45073;52.740;6.784;2023-06-04T12:24:47;25.50;52.90
59301;DHT22;45073;52.740;6.784;2023-06-04T12:27:14;25.60;52.40
59301;DHT22;45073;52.740;6.784;2023-06-04T12:29:40;25.60;51.70
59301;DHT22;45073;52.740;6.784;2023-06-04T12:32:10;25.70;52.30
59301;DHT22;45073;52.740;6.784;2023-06-04T12:34:39;25.70;51.00
59301;DHT22;45073;52.740;6.784;2023-06-04T12:37:05;25.80;50.90
59301;DHT22;45073;52.740;6.784;2023-06-04T12:39:32;25.80;49.70
59301;DHT22;45073;52.740;6.784;2023-06-04T12:41:58;25.80;50.50
59301;DHT22;45073;52.740;6.784;2023-06-04T12:44:24;25.90;50.60
59301;DHT22;45073;52.740;6.784;2023-06-04T12:46:50;25.90;50.50
59301;DHT22;45073;52.740;6.784;2023-06-04T12:49:15;26.10;50.30
59301;DHT22;45073;52.740;6.784;2023-06-04T12:51:41;26.00;50.10
59301;DHT22;45073;52.740;6.784;2023-06-04T12:54:07;26.00;50.00
59301;DHT22;45073;52.740;6.784;2023-06-04T12:56:32;26.00;49.60
59301;DHT22;45073;52.740;6.784;2023-06-04T12:58:58;26.10;49.60
59301;DHT22;45073;52.740;6.784;2023-06-04T13:01:24;26.20;49.70
59301;DHT22;45073;52.740;6.784;2023-06-04T13:03:50;26.20;49.10
59301;DHT22;45073;52.740;6.784;2023-06-04T13:06:16;26.30;48.80
59301;DHT22;45073;52.740;6.784;2023-06-04T13:08:42;26.40;48.90
59301;DHT22;45073;52.740;6.784;2023-06-04T13:11:09;26.50;48.30
59301;DHT22;45073;52.740;6.784;2023-06-04T13:13:35;26.50;48.30
59301;DHT22;45073;52.740;6.784;2023-06-04T13:16:02;26.50;48.50
59301;DHT22;45073;52.740;6.784;2023-06-04T13:18:28;26.60;48.40
59301;DHT22;45073;52.740;6.784;2023-06-04T13:20:54;26.60;47.60
59301;DHT22;45073;52.740;6.784;2023-06-04T13:23:19;26.70;47.40
59301;DHT22;45073;52.740;6.784;2023-06-04T13:25:45;26.70;47.60
59301;DHT22;45073;52.740;6.784;2023-06-04T13:28:11;26.80;47.70
59301;DHT22;45073;52.740;6.784;2023-06-04T13:30:36;26.80;46.60
59301;DHT22;45073;52.740;6.784;2023-06-04T13:33:03;26.90;47.70
59301;DHT22;45073;52.740;6.784;2023-06-04T13:35:29;26.90;46.80
59301;DHT22;45073;52.740;6.784;2023-06-04T13:37:55;26.90;47.10
59301;DHT22;45073;52.740;6.784;2023-06-04T13:40:20;27.00;47.00
59301;DHT22;45073;52.740;6.784;2023-06-04T13:42:46;27.10;46.70
59301;DHT22;45073;52.740;6.784;2023-06-04T13:45:12;27.20;47.00
59301;DHT22;45073;52.740;6.784;2023-06-04T13:47:37;27.30;46.60
59301;DHT22;45073;52.740;6.784;2023-06-04T13:50:03;27.30;46.60
59301;DHT22;45073;52.740;6.784;2023-06-04T13:52:30;27.30;46.40
59301;DHT22;45073;52.740;6.784;2023-06-04T13:54:56;27.40;46.10
59301;DHT22;45073;52.740;6.784;2023-06-04T13:57:24;27.40;46.30
59301;DHT22;45073;52.740;6.784;2023-06-04T13:59:50;27.50;46.20
59301;DHT22;45073;52.740;6.784;2023-06-04T14:02:15;27.50;46.70
59301;DHT22;45073;52.740;6.784;2023-06-04T14:04:41;27.50;45.50
59301;DHT22;45073;52.740;6.784;2023-06-04T14:07:07;27.40;45.00
59301;DHT22;45073;52.740;6.784;2023-06-04T14:09:32;27.40;46.00
59301;DHT22;45073;52.740;6.784;2023-06-04T14:11:59;27.50;46.10
59301;DHT22;45073;52.740;6.784;2023-06-04T14:14:24;27.50;46.10
59301;DHT22;45073;52.740;6.784;2023-06-04T14:16:50;27.60;45.70
59301;DHT22;45073;52.740;6.784;2023-06-04T14:19:16;27.60;45.20
59301;DHT22;45073;52.740;6.784;2023-06-04T14:21:43;27.70;45.50
59301;DHT22;45073;52.740;6.784;2023-06-04T14:24:09;27.70;45.10
59301;DHT22;45073;52.740;6.784;2023-06-04T14:26:35;27.70;44.80
59301;DHT22;45073;52.740;6.784;2023-06-04T14:29:02;27.70;45.00
59301;DHT22;45073;52.740;6.784;2023-06-04T14:31:28;27.60;45.90
59301;DHT22;45073;52.740;6.784;2023-06-04T14:33:53;27.60;46.20
59301;DHT22;45073;52.740;6.784;2023-06-04T14:36:19;27.70;46.30
59301;DHT22;45073;52.740;6.784;2023-06-04T14:38:46;27.70;46.00
59301;DHT22;45073;52.740;6.784;2023-06-04T14:41:11;27.70;45.70
59301;DHT22;45073;52.740;6.784;2023-06-04T14:43:37;27.70;45.80
59301;DHT22;45073;52.740;6.784;2023-06-04T14:46:03;27.60;45.90
59301;DHT22;45073;52.740;6.784;2023-06-04T14:48:29;27.60;45.70
59301;DHT22;45073;52.740;6.784;2023-06-04T14:50:55;27.50;45.60
59301;DHT22;45073;52.740;6.784;2023-06-04T14:53:21;27.50;46.50
59301;DHT22;45073;52.740;6.784;2023-06-04T14:55:47;27.40;46.20
59301;DHT22;45073;52.740;6.784;2023-06-04T14:58:13;27.40;45.90
59301;DHT22;45073;52.740;6.784;2023-06-04T15:00:39;27.30;46.20
59301;DHT22;45073;52.740;6.784;2023-06-04T15:03:05;27.30;45.90
59301;DHT22;45073;52.740;6.784;2023-06-04T15:05:31;27.30;46.60
59301;DHT22;45073;52.740;6.784;2023-06-04T15:07:57;27.30;46.60
59301;DHT22;45073;52.740;6.784;2023-06-04T15:10:24;27.30;47.70
59301;DHT22;45073;52.740;6.784;2023-06-04T15:12:50;27.30;47.70
59301;DHT22;45073;52.740;6.784;2023-06-04T15:15:15;27.20;47.70
59301;DHT22;45073;52.740;6.784;2023-06-04T15:17:41;27.10;48.10
59301;DHT22;45073;52.740;6.784;2023-06-04T15:20:07;27.00;48.50
59301;DHT22;45073;52.740;6.784;2023-06-04T15:22:33;26.90;48.10
59301;DHT22;45073;52.740;6.784;2023-06-04T15:24:59;26.80;49.10
59301;DHT22;45073;52.740;6.784;2023-06-04T15:27:25;26.80;49.20
59301;DHT22;45073;52.740;6.784;2023-06-04T15:29:50;26.70;49.60
59301;DHT22;45073;52.740;6.784;2023-06-04T15:32:17;26.70;50.20
59301;DHT22;45073;52.740;6.784;2023-06-04T15:34:43;26.70;50.10